Terminal Aerodrome Forecast
Issued by NWS

Home | Current Version | Previous Version | Graphics & Text | Print | Product List | Glossary On
Versions: 1 2 3 4 5 6 7 8 9 10 11 12 13 14 15 16 17 18 19
672
FTUS43 KTOP 260520
TAFFOE
TAF
KFOE 260520Z 2606/2706 10006KT P6SM FEW060
      TEMPO 2607/2609 6SM TSRA BKN050CB
     FM261200 36005KT P6SM SCT020 BKN050
     FM261800 35008KT P6SM SCT025
     FM270000 02004KT P6SM FEW250=

USA.gov is the U.S. government's official web portal to all federal, state and local government web resources and services.